Time;durP1;ratioP1;P1;durP2;ratioP2;P2;SDS_P1;SDS_P2;PMS_P1;PMS_P2;Temp;Humidity;BMP_temperature;BMP_pressure;BME280_temperature;BME280_humidity;BME280_pressure;Samples;Min_cycle;Max_cycle;Signal;HPM_P1;HPM_P2
2023/12/30 00:02:02;;;;;;;31.42;18.90;;;22.80;54.00;;;;;;5114511;28;20047;-77
2023/12/30 00:04:28;;;;;;;29.55;18.58;;;22.90;54.10;;;;;;5114134;28;20444;-73
2023/12/30 00:06:54;;;;;;;28.48;18.90;;;22.90;54.00;;;;;;5114420;28;20518;-74
2023/12/30 00:09:20;;;;;;;31.02;20.80;;;22.80;53.90;;;;;;5114053;27;20028;-75
2023/12/30 00:11:47;;;;;;;34.60;19.23;;;22.90;53.90;;;;;;5114197;28;20040;-74
2023/12/30 00:14:13;;;;;;;32.05;20.45;;;22.70;53.90;;;;;;5113917;28;20525;-75
2023/12/30 00:16:39;;;;;;;31.73;19.13;;;22.80;53.90;;;;;;5114314;28;20088;-75
2023/12/30 00:19:05;;;;;;;31.83;20.17;;;22.70;54.00;;;;;;5113708;28;20058;-75
2023/12/30 00:21:32;;;;;;;29.63;19.45;;;22.70;53.60;;;;;;5114281;28;20047;-74
2023/12/30 00:23:58;;;;;;;28.52;17.90;;;22.70;54.30;;;;;;5114112;28;20490;-75
2023/12/30 00:26:25;;;;;;;26.45;17.23;;;22.60;54.20;;;;;;5113932;28;20071;-75
2023/12/30 00:29:05;;;;;;;27.13;17.75;;;22.70;54.40;;;;;;5113733;28;20062;-76
2023/12/30 00:31:32;;;;;;;25.42;16.60;;;22.60;54.30;;;;;;5113844;27;20028;-82
2023/12/30 00:34:00;;;;;;;27.42;18.02;;;22.60;54.40;;;;;;5109519;28;20035;-82
2023/12/30 00:36:28;;;;;;;25.42;17.45;;;22.50;54.30;;;;;;5112514;28;20035;-84
2023/12/30 00:38:55;;;;;;;23.85;16.98;;;22.60;54.30;;;;;;5112479;28;20055;-83
2023/12/30 00:41:23;;;;;;;24.15;17.00;;;22.60;54.20;;;;;;5113853;28;20110;-84
2023/12/30 00:43:49;;;;;;;22.92;13.90;;;22.50;53.70;;;;;;5094412;28;20048;-83
2023/12/30 00:46:17;;;;;;;21.95;14.65;;;22.50;54.30;;;;;;5113573;27;20038;-84
2023/12/30 00:48:43;;;;;;;28.20;17.30;;;22.60;53.80;;;;;;5113605;27;20483;-83
2023/12/30 00:51:09;;;;;;;25.88;18.20;;;22.60;53.80;;;;;;5113276;28;20036;-83
2023/12/30 00:53:35;;;;;;;29.67;18.52;;;22.70;54.30;;;;;;5113599;28;20040;-81
2023/12/30 00:56:02;;;;;;;36.90;21.17;;;22.50;54.10;;;;;;5113568;28;20043;-84
2023/12/30 00:58:28;;;;;;;30.75;19.83;;;22.70;54.20;;;;;;5113267;28;20031;-81
2023/12/30 01:00:54;;;;;;;29.83;19.98;;;22.70;54.10;;;;;;5113459;27;20036;-84
2023/12/30 01:03:20;;;;;;;33.10;20.25;;;22.70;54.00;;;;;;5064920;28;20085;-84
2023/12/30 01:05:47;;;;;;;28.88;18.80;;;22.60;53.90;;;;;;5092856;28;20024;-84
2023/12/30 01:08:13;;;;;;;32.53;19.70;;;22.70;53.80;;;;;;5090672;28;20064;-83
2023/12/30 01:10:39;;;;;;;32.70;19.77;;;22.60;53.70;;;;;;5091333;28;20040;-84
2023/12/30 01:13:06;;;;;;;34.33;19.45;;;22.60;53.70;;;;;;5092757;28;20562;-82
2023/12/30 01:15:32;;;;;;;30.70;19.38;;;22.60;53.70;;;;;;5092649;28;20119;-82
2023/12/30 01:17:59;;;;;;;30.63;19.02;;;22.80;53.70;;;;;;5089778;28;20101;-82
2023/12/30 01:20:26;;;;;;;31.67;18.85;;;22.80;53.70;;;;;;5073064;28;20048;-83
2023/12/30 01:22:52;;;;;;;27.40;15.80;;;22.60;53.60;;;;;;5039693;28;20051;-83
2023/12/30 01:25:18;;;;;;;26.67;17.25;;;22.50;53.70;;;;;;5056254;28;20412;-83
2023/12/30 01:27:45;;;;;;;26.63;16.10;;;22.60;53.80;;;;;;5079508;28;20101;-83
2023/12/30 01:30:11;;;;;;;24.10;15.20;;;22.60;53.80;;;;;;5092963;28;20473;-83
2023/12/30 01:32:37;;;;;;;24.00;15.88;;;22.50;53.90;;;;;;5093349;28;20069;-83
2023/12/30 01:35:04;;;;;;;25.90;15.88;;;22.50;54.00;;;;;;5110110;28;20372;-83
2023/12/30 01:37:30;;;;;;;28.50;18.52;;;22.50;54.00;;;;;;5109986;28;20043;-81
2023/12/30 01:39:56;;;;;;;23.55;15.75;;;22.50;54.10;;;;;;5109740;28;20028;-80
2023/12/30 01:42:22;;;;;;;25.55;16.52;;;22.50;54.00;;;;;;5058957;28;20051;-81
2023/12/30 01:44:48;;;;;;;25.45;16.88;;;22.50;54.10;;;;;;5088885;28;20916;-81
2023/12/30 01:47:15;;;;;;;26.40;16.20;;;22.30;54.20;;;;;;5072486;28;20040;-80
2023/12/30 01:49:44;;;;;;;26.10;16.85;;;22.50;54.40;;;;;;5091394;28;20098;-79
2023/12/30 01:52:11;;;;;;;29.33;16.98;;;22.40;54.30;;;;;;5090494;28;20472;-78
2023/12/30 01:54:39;;;;;;;32.30;18.95;;;22.40;54.20;;;;;;5091952;28;20028;-81
2023/12/30 01:57:08;;;;;;;26.83;17.25;;;22.30;54.20;;;;;;5091985;28;20036;-80
2023/12/30 01:59:35;;;;;;;27.05;18.45;;;22.40;54.10;;;;;;5090509;28;20040;-81
2023/12/30 02:02:02;;;;;;;23.55;16.70;;;22.40;54.10;;;;;;5107515;28;20074;-80
2023/12/30 02:04:30;;;;;;;28.08;18.58;;;22.60;54.10;;;;;;5091755;28;20139;-81
2023/12/30 02:06:56;;;;;;;33.38;19.65;;;22.40;54.00;;;;;;5107381;28;20032;-80
2023/12/30 02:09:23;;;;;;;36.03;20.77;;;22.30;54.10;;;;;;5090123;28;20459;-81
2023/12/30 02:11:49;;;;;;;31.13;18.95;;;22.40;54.10;;;;;;5091707;28;20055;-80
2023/12/30 02:14:33;;;;;;;37.10;21.70;;;22.50;54.30;;;;;;5091467;28;20472;-80
2023/12/30 02:16:59;;;;;;;30.55;19.77;;;22.40;54.20;;;;;;5091726;28;20052;-76
2023/12/30 02:19:25;;;;;;;33.70;21.15;;;22.30;54.20;;;;;;5106950;28;20032;-80
2023/12/30 02:21:52;;;;;;;31.30;21.30;;;22.30;54.30;;;;;;5107194;28;20024;-81
2023/12/30 02:24:21;;;;;;;34.17;21.25;;;22.40;54.40;;;;;;5091439;28;20516;-81
2023/12/30 02:26:48;;;;;;;31.20;20.60;;;22.40;54.40;;;;;;5092164;28;20048;-80
2023/12/30 02:29:14;;;;;;;27.75;21.08;;;22.20;54.30;;;;;;5089973;28;20047;-80
2023/12/30 02:31:46;;;;;;;30.58;20.17;;;22.40;54.40;;;;;;5090069;28;20114;-80
2023/12/30 02:34:17;;;;;;;30.02;17.90;;;22.40;54.30;;;;;;5091319;28;20483;-80
2023/12/30 02:36:45;;;;;;;21.98;15.13;;;22.30;54.20;;;;;;5091556;28;20671;-81
2023/12/30 02:39:12;;;;;;;27.88;17.63;;;22.30;54.20;;;;;;5089992;28;20480;-80
2023/12/30 02:41:38;;;;;;;26.63;17.42;;;22.50;54.20;;;;;;5089861;28;20032;-81
2023/12/30 02:44:04;;;;;;;25.55;17.77;;;22.50;54.20;;;;;;5090904;28;20047;-78
2023/12/30 02:46:31;;;;;;;30.65;19.60;;;22.40;54.00;;;;;;5091169;28;20040;-81
2023/12/30 02:49:02;;;;;;;34.88;20.38;;;22.40;54.00;;;;;;5089563;28;20046;-81
2023/12/30 02:51:29;;;;;;;31.60;21.17;;;22.30;54.00;;;;;;5089865;28;20120;-80
2023/12/30 02:53:55;;;;;;;38.45;22.40;;;22.40;53.90;;;;;;5089839;28;20028;-79
2023/12/30 02:56:26;;;;;;;37.05;22.35;;;22.40;53.90;;;;;;5091019;28;20039;-80
2023/12/30 02:58:57;;;;;;;38.53;22.15;;;22.50;53.90;;;;;;5089563;28;20494;-79
2023/12/30 03:01:25;;;;;;;39.03;23.58;;;22.40;53.80;;;;;;5090800;28;20028;-79
2023/12/30 03:03:56;;;;;;;41.60;23.10;;;22.50;53.80;;;;;;5089684;28;20067;-81
2023/12/30 03:06:23;;;;;;;33.15;21.20;;;22.40;53.80;;;;;;5090989;28;20040;-80
2023/12/30 03:08:50;;;;;;;32.58;20.25;;;22.60;53.90;;;;;;5089764;28;20472;-81
2023/12/30 03:11:17;;;;;;;29.45;18.83;;;22.50;54.00;;;;;;5090413;28;20031;-79
2023/12/30 03:13:43;;;;;;;27.50;17.17;;;22.40;54.00;;;;;;5090757;28;20060;-78
2023/12/30 03:16:15;;;;;;;25.73;17.63;;;22.30;54.10;;;;;;5090765;28;20132;-81
2023/12/30 03:18:43;;;;;;;24.13;16.02;;;22.20;54.00;;;;;;5088227;28;20516;-80
2023/12/30 03:21:11;;;;;;;21.63;14.68;;;22.30;54.20;;;;;;5087817;28;20059;-80
2023/12/30 03:23:37;;;;;;;21.77;15.57;;;22.30;54.20;;;;;;5088191;28;20044;-80
2023/12/30 03:26:05;;;;;;;28.42;17.73;;;22.20;54.20;;;;;;5088019;28;20036;-80
2023/12/30 03:28:32;;;;;;;27.98;17.98;;;22.20;54.20;;;;;;5071394;28;20056;-80
2023/12/30 03:30:58;;;;;;;28.10;17.55;;;22.20;54.20;;;;;;5089001;28;20038;-79
2023/12/30 03:33:24;;;;;;;29.08;19.83;;;22.20;54.30;;;;;;5092209;28;20043;-79
2023/12/30 03:35:52;;;;;;;30.80;19.95;;;22.20;54.20;;;;;;5091810;28;20036;-80
2023/12/30 03:38:18;;;;;;;36.85;20.60;;;22.30;54.30;;;;;;5091949;28;20131;-80
2023/12/30 03:40:45;;;;;;;27.77;18.88;;;22.20;54.20;;;;;;5091866;28;20055;-81
2023/12/30 03:43:12;;;;;;;29.08;19.80;;;22.30;54.20;;;;;;5058059;28;20044;-77
2023/12/30 03:45:38;;;;;;;29.23;18.75;;;22.20;54.00;;;;;;5091964;28;20177;-79
2023/12/30 03:48:05;;;;;;;33.80;19.60;;;22.30;54.10;;;;;;5091885;28;20032;-80
2023/12/30 03:50:31;;;;;;;36.85;23.23;;;22.20;53.90;;;;;;5092717;28;20051;-77
2023/12/30 03:52:57;;;;;;;39.63;23.52;;;22.20;54.00;;;;;;5110311;28;20106;-79
2023/12/30 03:55:23;;;;;;;36.30;21.17;;;22.30;54.10;;;;;;5114804;28;20036;-80
2023/12/30 03:57:50;;;;;;;31.63;20.00;;;22.10;54.00;;;;;;5114569;28;20043;-80
2023/12/30 04:00:16;;;;;;;34.50;20.15;;;22.20;54.10;;;;;;5114305;28;20039;-79
2023/12/30 04:02:43;;;;;;;31.17;20.35;;;22.20;54.20;;;;;;5079060;28;20047;-80
2023/12/30 04:05:10;;;;;;;29.17;19.42;;;22.10;54.20;;;;;;5114452;28;20063;-80
2023/12/30 04:07:36;;;;;;;33.05;20.92;;;22.10;54.20;;;;;;5114477;28;20052;-79
2023/12/30 04:10:03;;;;;;;37.22;21.45;;;22.20;54.30;;;;;;5112995;28;20032;-79
2023/12/30 04:12:31;;;;;;;33.20;19.60;;;22.10;54.30;;;;;;5114592;28;20066;-80
2023/12/30 04:14:57;;;;;;;36.83;21.17;;;22.10;54.40;;;;;;5113223;28;20035;-80
2023/12/30 04:17:23;;;;;;;35.20;21.85;;;22.10;54.40;;;;;;5112753;28;20039;-79
2023/12/30 04:19:49;;;;;;;33.25;22.13;;;22.10;54.40;;;;;;5112859;28;20146;-78
2023/12/30 04:22:15;;;;;;;34.03;22.27;;;22.20;54.30;;;;;;5112809;28;20043;-80
2023/12/30 04:24:41;;;;;;;39.03;23.15;;;22.00;54.10;;;;;;5113912;28;20040;-80
2023/12/30 04:27:07;;;;;;;36.03;20.58;;;22.20;54.20;;;;;;5112903;28;20126;-80
2023/12/30 04:29:33;;;;;;;34.67;20.63;;;22.00;54.00;;;;;;5112898;28;20043;-78
2023/12/30 04:32:00;;;;;;;36.33;21.50;;;22.20;54.00;;;;;;5090806;28;20048;-80
2023/12/30 04:34:26;;;;;;;34.50;22.08;;;22.10;54.00;;;;;;5091059;28;20069;-80
2023/12/30 04:36:52;;;;;;;30.00;20.15;;;22.20;54.00;;;;;;5076603;28;20427;-80
2023/12/30 04:39:18;;;;;;;34.15;21.45;;;22.20;53.90;;;;;;5070642;28;20101;-80
2023/12/30 04:41:45;;;;;;;35.25;21.55;;;22.20;53.90;;;;;;5053358;28;20157;-80
2023/12/30 04:44:11;;;;;;;32.95;21.15;;;22.20;53.90;;;;;;5036112;28;20048;-81
2023/12/30 04:46:37;;;;;;;31.15;21.10;;;22.20;53.80;;;;;;5053950;28;20044;-80
2023/12/30 04:49:03;;;;;;;35.78;21.20;;;22.30;53.90;;;;;;5053813;28;20044;-80
2023/12/30 04:51:31;;;;;;;28.08;19.70;;;22.30;53.80;;;;;;5053650;28;20037;-79
2023/12/30 04:53:57;;;;;;;28.50;18.63;;;22.30;53.80;;;;;;5070382;28;20041;-80
2023/12/30 04:56:24;;;;;;;11.38;9.48;;;22.20;53.70;;;;;;5053807;28;20054;-80
2023/12/30 04:58:51;;;;;;;12.75;8.48;;;22.20;53.60;;;;;;5070346;28;20032;-80
2023/12/30 05:01:17;;;;;;;26.67;13.13;;;22.30;53.60;;;;;;5053519;28;20051;-79
2023/12/30 05:03:43;;;;;;;15.23;10.10;;;22.40;53.40;;;;;;5083321;28;20519;-80
2023/12/30 05:06:22;;;;;;;16.30;10.32;;;22.30;53.20;;;;;;5092926;28;20036;-80
2023/12/30 05:08:49;;;;;;;32.13;19.45;;;22.40;53.00;;;;;;5093087;28;20123;-80
2023/12/30 05:11:16;;;;;;;17.73;11.93;;;22.40;52.70;;;;;;5093881;28;20036;-75
2023/12/30 05:13:43;;;;;;;18.10;11.13;;;22.40;52.10;;;;;;5090306;28;20511;-73
2023/12/30 05:16:10;;;;;;;15.23;10.18;;;22.50;53.90;;;;;;5090193;28;20180;-77
2023/12/30 05:18:36;;;;;;;17.45;12.18;;;22.90;53.10;;;;;;5090660;28;20043;-74
2023/12/30 05:21:02;;;;;;;20.63;14.07;;;23.20;52.80;;;;;;5090352;28;20490;-74
2023/12/30 05:23:29;;;;;;;20.23;12.88;;;23.40;58.10;;;;;;5090590;28;20581;-75
2023/12/30 05:25:55;;;;;;;18.13;13.45;;;23.10;49.90;;;;;;5090349;28;20040;-76
2023/12/30 05:28:21;;;;;;;36.20;21.73;;;23.10;48.50;;;;;;5090369;28;20069;-80
2023/12/30 05:30:47;;;;;;;35.92;21.33;;;22.90;47.00;;;;;;5089870;28;20048;-80
2023/12/30 05:33:13;;;;;;;31.80;21.25;;;22.90;46.60;;;;;;5089805;28;20185;-79
2023/12/30 05:35:40;;;;;;;30.10;18.75;;;22.70;45.70;;;;;;5089817;28;20063;-78
2023/12/30 05:38:06;;;;;;;29.05;19.52;;;22.70;45.60;;;;;;5089636;28;20126;-79
2023/12/30 05:40:32;;;;;;;32.08;20.55;;;22.70;46.40;;;;;;5089681;28;20113;-78
2023/12/30 05:42:58;;;;;;;34.40;21.08;;;22.60;47.10;;;;;;5089476;28;20139;-74
2023/12/30 05:45:24;;;;;;;35.78;20.42;;;22.60;47.90;;;;;;5072486;28;20054;-78
2023/12/30 05:47:50;;;;;;;36.13;21.42;;;22.60;48.30;;;;;;5089442;28;20048;-76
2023/12/30 05:50:16;;;;;;;33.20;22.73;;;22.60;48.60;;;;;;5092927;28;20048;-77
2023/12/30 05:52:42;;;;;;;34.90;21.20;;;22.50;48.80;;;;;;5112101;28;20074;-77
2023/12/30 05:55:08;;;;;;;30.30;20.83;;;22.50;49.00;;;;;;5112061;27;20020;-78
2023/12/30 05:57:34;;;;;;;33.70;20.10;;;22.40;48.90;;;;;;5112156;27;20414;-77
2023/12/30 06:00:01;;;;;;;18.38;13.52;;;22.50;49.10;;;;;;5112147;28;20032;-83
2023/12/30 06:02:28;;;;;;;20.88;15.02;;;22.30;44.60;;;;;;5112403;28;20032;-80
2023/12/30 06:04:54;;;;;;;18.63;15.65;;;22.30;43.80;;;;;;5112268;28;20387;-79
2023/12/30 06:07:20;;;;;;;19.58;14.73;;;22.40;43.50;;;;;;5112351;28;20043;-80
2023/12/30 06:09:46;;;;;;;18.80;15.85;;;22.40;42.80;;;;;;5112356;28;20032;-80
2023/12/30 06:12:12;;;;;;;19.65;15.95;;;22.50;45.60;;;;;;5112083;28;20047;-79
2023/12/30 06:14:39;;;;;;;17.83;15.43;;;22.50;44.10;;;;;;5111870;28;20023;-78
2023/12/30 06:17:05;;;;;;;20.20;16.70;;;22.30;42.70;;;;;;5110738;28;20515;-79
2023/12/30 06:19:33;;;;;;;21.05;18.60;;;22.50;43.20;;;;;;5110481;28;20476;-81
2023/12/30 06:21:59;;;;;;;23.92;21.33;;;22.40;43.20;;;;;;5111878;28;20035;-78
2023/12/30 06:24:26;;;;;;;25.17;22.48;;;22.50;43.70;;;;;;5111662;28;20496;-78
2023/12/30 06:26:53;;;;;;;19.15;16.13;;;22.50;44.10;;;;;;5111687;28;20039;-80
2023/12/30 06:29:19;;;;;;;17.27;15.18;;;22.50;42.80;;;;;;5111473;28;20100;-80
2023/12/30 06:31:45;;;;;;;19.77;15.63;;;22.30;41.20;;;;;;5111671;28;20023;-78
2023/12/30 06:34:11;;;;;;;20.05;15.70;;;22.50;40.60;;;;;;5110678;28;20039;-78
2023/12/30 06:36:38;;;;;;;18.27;15.40;;;22.40;39.90;;;;;;5111638;28;20438;-84
2023/12/30 06:39:05;;;;;;;18.35;14.40;;;22.30;39.80;;;;;;5110569;28;20040;-81
2023/12/30 06:41:31;;;;;;;19.85;15.38;;;22.50;43.60;;;;;;5090087;28;20048;-82
2023/12/30 06:43:57;;;;;;;15.18;12.98;;;22.70;43.50;;;;;;5100385;28;20039;-79
2023/12/30 06:46:23;;;;;;;16.52;12.07;;;22.90;44.90;;;;;;5101629;28;20210;-79
2023/12/30 06:48:49;;;;;;;16.75;12.60;;;22.90;40.70;;;;;;5098552;28;20031;-79
2023/12/30 06:51:15;;;;;;;16.15;13.10;;;22.90;43.20;;;;;;5099326;28;20042;-82
2023/12/30 06:53:41;;;;;;;18.55;12.63;;;22.90;40.20;;;;;;5099700;28;20032;-77
2023/12/30 06:56:08;;;;;;;15.75;12.38;;;23.00;40.20;;;;;;5101392;28;20031;-79
2023/12/30 06:58:35;;;;;;;16.52;12.80;;;23.00;40.50;;;;;;5101646;28;20024;-79
2023/12/30 07:01:01;;;;;;;19.73;13.25;;;23.00;39.80;;;;;;5101962;28;20487;-77
2023/12/30 07:03:27;;;;;;;21.05;12.13;;;23.10;43.10;;;;;;5072888;28;20040;-78
2023/12/30 07:05:53;;;;;;;18.23;12.23;;;23.20;43.30;;;;;;5103523;28;20122;-79
2023/12/30 07:08:19;;;;;;;18.98;12.05;;;23.30;43.80;;;;;;5103828;28;20032;-77
2023/12/30 07:10:46;;;;;;;33.45;18.15;;;23.40;44.50;;;;;;5102338;28;20510;-75
2023/12/30 07:13:12;;;;;;;28.00;15.65;;;23.70;54.30;;;;;;5105826;28;20115;-76
2023/12/30 07:15:39;;;;;;;30.27;19.13;;;23.60;51.50;;;;;;5102729;28;20059;-77
2023/12/30 07:18:05;;;;;;;17.13;14.55;;;23.80;53.00;;;;;;5107578;28;20447;-76
2023/12/30 07:20:31;;;;;;;20.05;13.95;;;23.90;49.70;;;;;;5115130;28;20088;-76
2023/12/30 07:22:57;;;;;;;29.15;17.83;;;23.90;46.00;;;;;;5109503;28;20084;-75
2023/12/30 07:25:23;;;;;;;35.60;17.27;;;24.00;47.30;;;;;;5103799;28;20615;-77
2023/12/30 07:27:51;;;;;;;36.00;18.52;;;24.00;50.30;;;;;;5098104;28;20102;-79
2023/12/30 07:30:17;;;;;;;33.70;19.45;;;24.10;50.00;;;;;;5097430;28;20805;-76
2023/12/30 07:32:43;;;;;;;35.40;21.30;;;24.20;49.00;;;;;;5093871;28;20035;-75
2023/12/30 07:35:09;;;;;;;32.60;21.52;;;24.30;51.90;;;;;;5078795;28;20043;-76
2023/12/30 07:37:35;;;;;;;35.42;27.83;;;24.40;51.70;;;;;;5115138;28;20063;-80
2023/12/30 07:40:02;;;;;;;29.63;18.40;;;24.60;57.80;;;;;;5105722;28;20044;-80
2023/12/30 07:42:29;;;;;;;29.27;19.35;;;24.70;49.70;;;;;;5094500;28;20036;-84
2023/12/30 07:44:55;;;;;;;32.63;20.08;;;24.80;47.30;;;;;;5076437;28;20040;-80
2023/12/30 07:47:22;;;;;;;34.63;23.15;;;25.10;49.80;;;;;;5099388;28;20068;-89
2023/12/30 07:49:48;;;;;;;29.77;18.67;;;25.10;54.00;;;;;;5079176;28;20135;-89
2023/12/30 07:52:14;;;;;;;35.08;19.73;;;25.30;45.90;;;;;;5114695;28;20042;-78
2023/12/30 07:54:40;;;;;;;36.00;20.85;;;25.30;43.80;;;;;;5115023;28;20038;-81
2023/12/30 07:57:06;;;;;;;28.83;20.02;;;25.30;52.50;;;;;;5099460;28;20084;-84
2023/12/30 07:59:32;;;;;;;43.83;22.08;;;25.50;47.60;;;;;;5114596;28;20039;-87
2023/12/30 08:01:58;;;;;;;29.02;18.55;;;25.40;48.70;;;;;;5114800;28;20027;-85
2023/12/30 08:04:24;;;;;;;32.17;20.40;;;25.50;48.90;;;;;;5114433;28;20538;-82
2023/12/30 08:06:51;;;;;;;37.63;20.08;;;25.60;45.30;;;;;;5114893;28;20528;-80
2023/12/30 08:09:17;;;;;;;25.60;18.45;;;25.70;46.50;;;;;;5114354;28;20039;-79
2023/12/30 08:11:43;;;;;;;33.55;22.00;;;25.90;50.50;;;;;;5114621;28;20107;-78
2023/12/30 08:14:10;;;;;;;38.90;21.33;;;25.90;48.40;;;;;;5114327;28;20031;-81
2023/12/30 08:16:36;;;;;;;35.33;22.17;;;26.00;48.90;;;;;;5113879;28;20112;-79
2023/12/30 08:19:03;;;;;;;35.83;22.02;;;25.90;47.00;;;;;;5114528;28;20084;-76
2023/12/30 08:21:30;;;;;;;29.42;20.38;;;25.80;48.40;;;;;;5114238;28;20114;-78
2023/12/30 08:23:58;;;;;;;24.90;16.88;;;26.00;50.90;;;;;;5114209;28;20443;-78
2023/12/30 08:26:25;;;;;;;47.17;22.35;;;26.00;48.10;;;;;;5114292;28;20405;-79
2023/12/30 08:28:52;;;;;;;52.15;23.90;;;26.10;44.30;;;;;;5114187;28;20038;-83
2023/12/30 08:31:18;;;;;;;43.83;22.15;;;25.80;48.50;;;;;;5113899;28;20044;-75
2023/12/30 08:33:45;;;;;;;32.53;20.42;;;26.00;49.80;;;;;;5112699;28;20538;-75
2023/12/30 08:36:11;;;;;;;33.58;21.25;;;26.00;47.40;;;;;;5114053;28;20057;-81
2023/12/30 08:38:37;;;;;;;28.38;17.90;;;26.10;46.40;;;;;;5113891;28;20039;-80
2023/12/30 08:41:03;;;;;;;27.08;19.05;;;26.00;44.60;;;;;;5114054;28;20053;-80
2023/12/30 08:43:30;;;;;;;40.83;24.85;;;26.00;43.10;;;;;;5044487;28;20050;-79
2023/12/30 08:45:56;;;;;;;28.35;18.67;;;25.90;45.60;;;;;;5114062;28;20463;-79
2023/12/30 08:48:22;;;;;;;28.42;19.55;;;25.80;42.00;;;;;;5111932;28;20097;-81
2023/12/30 08:50:48;;;;;;;25.77;18.17;;;25.90;43.50;;;;;;5095678;28;20020;-80
2023/12/30 08:53:17;;;;;;;28.80;19.23;;;25.80;43.20;;;;;;5093192;28;20049;-76
2023/12/30 08:55:43;;;;;;;27.30;18.42;;;26.00;43.70;;;;;;5093512;28;20563;-80
2023/12/30 08:58:09;;;;;;;25.85;17.23;;;25.80;46.00;;;;;;5093519;28;20035;-75
2023/12/30 09:00:35;;;;;;;27.35;18.80;;;25.80;45.20;;;;;;5093464;28;20173;-82
2023/12/30 09:03:02;;;;;;;27.83;17.90;;;25.70;45.20;;;;;;5092920;28;20020;-75
2023/12/30 09:05:28;;;;;;;28.83;17.27;;;25.80;41.80;;;;;;5073714;28;20122;-76
2023/12/30 09:07:55;;;;;;;27.08;17.58;;;25.80;44.70;;;;;;5093008;28;20096;-74
2023/12/30 09:10:21;;;;;;;30.60;18.60;;;25.80;46.30;;;;;;5092623;28;20140;-75
2023/12/30 09:12:47;;;;;;;29.33;18.08;;;25.80;44.90;;;;;;5073008;28;20061;-73
2023/12/30 09:15:13;;;;;;;26.55;18.63;;;25.80;45.30;;;;;;5092087;28;20633;-76
2023/12/30 09:17:39;;;;;;;22.40;13.38;;;25.80;45.30;;;;;;5093417;28;20157;-76
2023/12/30 09:20:06;;;;;;;35.70;15.40;;;25.80;48.40;;;;;;5092522;28;20047;-75
2023/12/30 09:22:32;;;;;;;29.30;14.50;;;25.80;51.90;;;;;;5092374;28;20040;-74
2023/12/30 09:24:58;;;;;;;23.58;14.43;;;26.00;49.70;;;;;;5092201;28;20418;-73
2023/12/30 09:27:24;;;;;;;25.67;14.63;;;26.00;53.60;;;;;;5092513;28;20050;-75
2023/12/30 09:29:50;;;;;;;30.50;14.63;;;26.00;49.30;;;;;;5091688;28;20036;-73
2023/12/30 09:32:16;;;;;;;23.77;14.48;;;26.00;47.30;;;;;;5092338;28;20519;-74
2023/12/30 09:34:43;;;;;;;27.33;15.82;;;25.90;45.80;;;;;;5092242;28;20036;-74
2023/12/30 09:37:09;;;;;;;25.65;14.77;;;26.00;45.70;;;;;;5092304;28;20040;-76
2023/12/30 09:39:35;;;;;;;23.17;15.80;;;26.00;45.40;;;;;;5092205;28;20132;-75
2023/12/30 09:42:02;;;;;;;24.70;15.80;;;25.80;47.80;;;;;;5091641;28;20032;-74
2023/12/30 09:44:28;;;;;;;27.70;15.88;;;25.70;45.20;;;;;;5091742;28;20452;-73
2023/12/30 09:46:55;;;;;;;52.95;23.10;;;25.80;45.20;;;;;;5107091;28;20413;-73
2023/12/30 09:49:22;;;;;;;37.30;25.95;;;26.00;44.90;;;;;;5112293;28;20035;-71
2023/12/30 09:51:48;;;;;;;38.03;24.83;;;25.90;41.40;;;;;;5112218;28;20050;-71
2023/12/30 09:54:14;;;;;;;34.72;23.08;;;25.90;40.40;;;;;;5112484;28;20034;-72
2023/12/30 09:56:43;;;;;;;34.17;22.85;;;25.80;40.70;;;;;;5112383;28;20685;-72
2023/12/30 09:59:09;;;;;;;38.17;23.65;;;25.80;41.20;;;;;;5112262;28;20030;-73
2023/12/30 10:01:36;;;;;;;41.40;25.17;;;25.80;42.90;;;;;;5112139;28;20459;-71
2023/12/30 10:04:03;;;;;;;41.53;24.17;;;25.80;44.10;;;;;;5112120;28;20036;-71
2023/12/30 10:06:32;;;;;;;34.17;23.02;;;25.50;44.00;;;;;;5112518;28;20035;-71
2023/12/30 10:08:59;;;;;;;33.13;24.02;;;25.50;44.00;;;;;;5112509;28;20118;-73
2023/12/30 10:11:25;;;;;;;38.67;23.30;;;25.40;44.30;;;;;;5110563;28;20067;-73
2023/12/30 10:13:54;;;;;;;31.55;22.60;;;25.40;44.50;;;;;;5092451;28;20570;-71
2023/12/30 10:16:20;;;;;;;31.55;22.42;;;25.30;44.80;;;;;;5111619;28;20063;-73
2023/12/30 10:18:46;;;;;;;30.67;21.30;;;25.10;45.30;;;;;;5111589;28;20412;-72
2023/12/30 10:21:12;;;;;;;31.80;21.42;;;25.10;45.10;;;;;;5111807;28;20444;-74
2023/12/30 10:23:38;;;;;;;28.60;20.48;;;25.00;46.00;;;;;;5110641;28;20123;-74
2023/12/30 10:26:05;;;;;;;32.78;21.98;;;25.10;48.60;;;;;;5111794;28;20383;-74
2023/12/30 10:28:31;;;;;;;38.50;22.70;;;25.10;50.40;;;;;;5112083;28;20130;-75
2023/12/30 10:31:05;;;;;;;31.90;22.50;;;25.30;51.30;;;;;;5112056;28;20024;-75
2023/12/30 10:33:33;;;;;;;39.03;25.23;;;25.50;49.00;;;;;;5111872;28;20035;-74
2023/12/30 10:35:59;;;;;;;41.28;23.88;;;25.40;50.60;;;;;;5111726;28;20096;-75
2023/12/30 10:38:26;;;;;;;32.67;22.40;;;25.40;51.40;;;;;;5111416;28;20055;-75
2023/12/30 10:40:52;;;;;;;42.80;23.42;;;25.60;52.20;;;;;;5111621;28;20046;-74
2023/12/30 10:43:20;;;;;;;33.45;24.52;;;26.10;54.20;;;;;;5111628;28;20032;-72
2023/12/30 10:45:57;;;;;;;32.70;21.80;;;26.20;52.80;;;;;;5108117;28;20089;-73
2023/12/30 10:48:26;;;;;;;34.08;22.73;;;26.00;53.30;;;;;;5111431;28;20043;-72
2023/12/30 10:50:55;;;;;;;33.97;22.52;;;25.70;52.40;;;;;;5111362;28;20490;-73
2023/12/30 10:53:30;;;;;;;30.88;22.40;;;25.70;52.60;;;;;;5111484;28;20042;-73
2023/12/30 10:56:02;;;;;;;35.80;23.25;;;25.50;52.60;;;;;;5111297;28;20040;-74
2023/12/30 10:58:35;;;;;;;32.27;19.20;;;25.60;54.10;;;;;;5111558;28;20062;-72
2023/12/30 11:01:03;;;;;;;28.65;19.20;;;25.50;53.90;;;;;;5111420;28;20286;-75
2023/12/30 11:03:33;;;;;;;36.28;22.35;;;25.50;54.60;;;;;;5111273;28;20435;-75
2023/12/30 11:05:59;;;;;;;29.70;18.45;;;25.50;54.40;;;;;;5111169;28;20036;-75
2023/12/30 11:08:25;;;;;;;31.58;21.38;;;25.30;52.60;;;;;;5111254;28;20452;-73
2023/12/30 11:10:51;;;;;;;28.65;19.45;;;25.30;50.00;;;;;;5109962;28;20115;-73
2023/12/30 11:13:20;;;;;;;31.40;21.55;;;25.20;50.50;;;;;;5111128;28;20559;-74
2023/12/30 11:15:46;;;;;;;26.67;18.23;;;25.10;50.90;;;;;;5111297;28;20081;-75
2023/12/30 11:18:13;;;;;;;30.17;20.17;;;25.10;51.30;;;;;;5111556;28;20055;-74
2023/12/30 11:20:46;;;;;;;33.33;19.95;;;25.30;51.20;;;;;;5097532;28;20032;-74
2023/12/30 11:23:14;;;;;;;33.90;20.33;;;25.00;51.40;;;;;;5090719;28;20032;-73
2023/12/30 11:25:47;;;;;;;36.83;20.65;;;25.10;51.60;;;;;;5090916;28;20032;-73
2023/12/30 11:28:14;;;;;;;29.58;20.73;;;25.00;51.80;;;;;;5090799;28;20094;-73
2023/12/30 11:30:44;;;;;;;37.50;24.30;;;25.00;51.30;;;;;;5090938;28;20501;-73
2023/12/30 11:33:13;;;;;;;32.72;22.80;;;24.90;50.80;;;;;;5090704;28;20127;-74
2023/12/30 11:35:40;;;;;;;37.00;21.08;;;25.00;50.80;;;;;;5089503;28;20065;-74
2023/12/30 11:38:09;;;;;;;36.20;22.90;;;25.00;51.90;;;;;;5090807;28;20062;-74
2023/12/30 11:40:42;;;;;;;31.85;18.15;;;25.00;54.60;;;;;;5090832;28;20089;-73
2023/12/30 11:43:10;;;;;;;32.60;18.27;;;25.00;55.50;;;;;;5090509;28;20043;-73
2023/12/30 11:45:37;;;;;;;30.05;18.30;;;25.00;55.20;;;;;;5110462;28;20042;-72
2023/12/30 11:48:03;;;;;;;31.08;19.60;;;25.00;55.30;;;;;;5111037;28;20088;-73
2023/12/30 11:50:30;;;;;;;35.10;20.75;;;24.90;55.30;;;;;;5111055;28;20063;-73
2023/12/30 11:52:56;;;;;;;32.45;21.60;;;25.00;55.60;;;;;;5113448;28;20039;-74
2023/12/30 11:55:24;;;;;;;29.77;19.92;;;25.00;55.90;;;;;;5114386;28;20039;-76
2023/12/30 11:57:51;;;;;;;33.35;20.85;;;25.00;56.00;;;;;;5114947;28;20058;-76
2023/12/30 12:00:17;;;;;;;35.40;22.08;;;25.00;56.70;;;;;;5114344;28;20096;-75
2023/12/30 12:02:43;;;;;;;34.40;22.48;;;25.10;57.20;;;;;;5099456;28;20047;-74
2023/12/30 12:05:09;;;;;;;32.55;21.48;;;25.30;55.30;;;;;;5093915;28;20035;-75
2023/12/30 12:07:36;;;;;;;34.53;20.65;;;25.40;55.50;;;;;;5094125;28;20121;-74
2023/12/30 12:10:02;;;;;;;30.58;19.80;;;25.60;55.10;;;;;;5092442;28;20036;-72
2023/12/30 12:12:39;;;;;;;36.03;21.15;;;25.90;60.80;;;;;;5097745;28;20024;-76
2023/12/30 12:15:08;;;;;;;32.55;19.33;;;25.90;56.40;;;;;;5106728;28;20044;-74
2023/12/30 12:17:36;;;;;;;32.97;20.50;;;25.60;53.80;;;;;;5094143;28;20538;-73
2023/12/30 12:20:04;;;;;;;15.93;12.90;;;25.50;52.80;;;;;;5106754;28;20057;-75
2023/12/30 12:22:31;;;;;;;23.20;13.38;;;25.30;52.20;;;;;;5113751;28;20030;-77
2023/12/30 12:24:57;;;;;;;23.20;13.50;;;25.40;50.30;;;;;;5113949;28;20047;-76
2023/12/30 12:27:24;;;;;;;20.85;14.70;;;25.40;48.30;;;;;;5091442;28;20508;-75